createdAt,value
2022-11-21T00:00:27.908Z,97582.25
2022-11-21T00:02:54.475Z,97589.41
2022-11-21T00:05:20.959Z,97584.63
2022-11-21T00:07:47.451Z,97586.16
2022-11-21T00:10:14.031Z,97574.38
2022-11-21T00:12:40.515Z,97579.22
2022-11-21T00:15:07.366Z,97567.78
2022-11-21T00:17:33.844Z,97571.66
2022-11-21T00:20:00.296Z,97566.03
2022-11-21T00:22:26.788Z,97572.50
2022-11-21T00:24:54.400Z,97558.88
2022-11-21T00:27:20.948Z,97568.91
2022-11-21T00:29:47.414Z,97571.16
2022-11-21T00:32:13.852Z,97574.16
2022-11-21T00:34:40.401Z,97574.28
2022-11-21T00:37:06.862Z,97577.59
2022-11-21T00:39:33.371Z,97569.94
2022-11-21T00:41:59.848Z,97562.22
2022-11-21T00:44:26.634Z,97561.72
2022-11-21T00:46:53.255Z,97553.47
2022-11-21T00:49:19.707Z,97559.09
2022-11-21T00:51:46.243Z,97553.53
2022-11-21T00:54:12.792Z,97553.16
2022-11-21T00:56:39.320Z,97546.44
2022-11-21T00:59:05.754Z,97550.59
2022-11-21T01:01:32.308Z,97532.84
2022-11-21T01:03:59.132Z,97540.94
2022-11-21T01:06:25.654Z,97540.13
2022-11-21T01:08:52.112Z,97550.59
2022-11-21T01:11:20.291Z,97544.03
2022-11-21T01:13:48.703Z,97533.91
2022-11-21T01:16:21.151Z,97533.41
2022-11-21T01:18:48.297Z,97529.97
2022-11-21T01:21:20.594Z,97532.31
2022-11-21T01:23:48.064Z,97534.81
2022-11-21T01:26:17.527Z,97532.53
2022-11-21T01:28:44.329Z,97546.22
2022-11-21T01:31:17.136Z,97540.81
2022-11-21T01:33:43.683Z,97538.00
2022-11-21T01:36:21.870Z,97536.03
2022-11-21T01:38:50.162Z,97524.47
2022-11-21T01:41:19.227Z,97529.09
2022-11-21T01:43:47.732Z,97532.16
2022-11-21T01:46:16.530Z,97528.47
2022-11-21T01:48:52.478Z,97533.81
2022-11-21T01:51:31.439Z,97532.44
2022-11-21T01:54:06.232Z,97529.78
2022-11-21T01:56:56.416Z,97526.03
2022-11-21T01:59:29.156Z,97535.91
2022-11-21T02:01:57.886Z,97529.66
2022-11-21T02:04:28.940Z,97535.13
2022-11-21T02:06:55.651Z,97530.16
2022-11-21T02:09:22.519Z,97533.44
2022-11-21T02:11:54.466Z,97532.69
2022-11-21T02:14:20.924Z,97534.81
2022-11-21T02:16:47.511Z,97536.88
2022-11-21T02:19:52.015Z,97531.06
2022-11-21T02:22:45.835Z,97526.03
2022-11-21T02:25:18.183Z,97522.19
2022-11-21T02:27:46.197Z,97527.81
2022-11-21T02:30:13.402Z,97522.78
2022-11-21T02:32:49.512Z,97539.66
2022-11-21T02:35:18.174Z,97531.34
2022-11-21T02:37:58.122Z,97537.19
2022-11-21T02:40:29.075Z,97534.56
2022-11-21T02:43:13.595Z,97528.72
2022-11-21T02:45:42.417Z,97522.09
2022-11-21T02:48:09.676Z,97532.22
2022-11-21T02:50:41.364Z,97522.34
2022-11-21T02:53:13.179Z,97527.63
2022-11-21T02:55:39.909Z,97525.53
2022-11-21T02:58:06.654Z,97524.53
2022-11-21T03:00:35.296Z,97537.44
2022-11-21T03:03:02.141Z,97530.66
2022-11-21T03:05:28.735Z,97534.44
2022-11-21T03:07:55.225Z,97533.44
2022-11-21T03:10:21.714Z,97534.09
2022-11-21T03:12:48.465Z,97536.16
2022-11-21T03:15:15.809Z,97541.75
2022-11-21T03:17:43.577Z,97538.69
2022-11-21T03:20:10.864Z,97539.94
2022-11-21T03:22:37.645Z,97542.19
2022-11-21T03:25:04.509Z,97537.84
2022-11-21T03:27:30.984Z,97544.69
2022-11-21T03:29:57.433Z,97541.03
2022-11-21T03:32:23.977Z,97550.28
2022-11-21T03:34:50.479Z,97540.91
2022-11-21T03:37:17.148Z,97551.38
2022-11-21T03:39:43.823Z,97544.63
2022-11-21T03:42:10.337Z,97540.94
2022-11-21T03:44:36.775Z,97540.13
2022-11-21T03:47:03.423Z,97544.81
2022-11-21T03:49:29.891Z,97544.94
2022-11-21T03:51:56.448Z,97545.28
2022-11-21T03:54:22.906Z,97542.75
2022-11-21T03:56:49.399Z,97538.19
2022-11-21T03:59:15.845Z,97538.66
2022-11-21T04:01:42.405Z,97533.34
2022-11-21T04:04:08.898Z,97532.66
2022-11-21T04:06:35.366Z,97541.03
2022-11-21T04:09:01.926Z,97541.16
2022-11-21T04:11:28.496Z,97540.00
2022-11-21T04:13:55.169Z,97537.44
2022-11-21T04:16:21.755Z,97541.63
2022-11-21T04:18:48.312Z,97535.47
2022-11-21T04:21:14.807Z,97539.44
2022-11-21T04:23:41.403Z,97533.88
2022-11-21T04:26:08.201Z,97533.41
2022-11-21T04:28:34.761Z,97525.72
2022-11-21T04:31:10.336Z,97533.69
2022-11-21T04:33:38.982Z,97524.47
2022-11-21T04:36:06.686Z,97534.53
2022-11-21T04:38:33.187Z,97531.16
2022-11-21T04:40:59.668Z,97536.31
2022-11-21T04:43:26.285Z,97530.09
2022-11-21T04:45:52.807Z,97523.75
2022-11-21T04:48:19.292Z,97527.53
2022-11-21T04:50:45.930Z,97527.94
2022-11-21T04:53:12.419Z,97521.44
2022-11-21T04:55:38.891Z,97523.66
2022-11-21T04:58:05.531Z,97524.22
2022-11-21T05:00:32.059Z,97524.19
2022-11-21T05:03:05.697Z,97517.06
2022-11-21T05:05:32.729Z,97522.66
2022-11-21T05:07:59.232Z,97532.53
2022-11-21T05:10:25.715Z,97526.84
2022-11-21T05:13:18.286Z,97528.78
2022-11-21T05:15:45.073Z,97537.78
2022-11-21T05:18:12.101Z,97532.56
2022-11-21T05:20:38.691Z,97534.38
2022-11-21T05:23:05.370Z,97531.03
2022-11-21T05:25:31.837Z,97525.59
2022-11-21T05:27:58.462Z,97527.66
2022-11-21T05:30:25.003Z,97531.97
2022-11-21T05:32:51.475Z,97527.72
2022-11-21T05:35:17.932Z,97533.81
2022-11-21T05:37:44.392Z,97530.84
2022-11-21T05:40:11.402Z,97536.19
2022-11-21T05:43:02.275Z,97543.88
2022-11-21T05:45:28.728Z,97547.47
2022-11-21T05:47:55.273Z,97545.41
2022-11-21T05:50:21.682Z,97532.16
2022-11-21T05:52:48.179Z,97534.13
2022-11-21T05:55:14.821Z,97529.91
2022-11-21T05:57:41.292Z,97527.50
2022-11-21T06:00:08.542Z,97531.19
2022-11-21T06:02:53.765Z,97540.28
2022-11-21T06:05:20.326Z,97537.88
2022-11-21T06:07:46.814Z,97537.19
2022-11-21T06:10:13.340Z,97545.28
2022-11-21T06:12:39.777Z,97543.22
2022-11-21T06:15:06.741Z,97536.16
2022-11-21T06:17:33.266Z,97529.09
2022-11-21T06:19:59.710Z,97537.56
2022-11-21T06:22:26.158Z,97542.00
2022-11-21T06:24:52.634Z,97546.53
2022-11-21T06:27:19.069Z,97541.91
2022-11-21T06:29:45.552Z,97531.50
2022-11-21T06:32:12.096Z,97541.06
2022-11-21T06:34:38.588Z,97531.84
2022-11-21T06:37:05.147Z,97533.81
2022-11-21T06:39:31.631Z,97533.91
2022-11-21T06:41:58.935Z,97536.84
2022-11-21T06:44:25.638Z,97536.59
2022-11-21T06:46:52.260Z,97539.31
2022-11-21T06:49:18.821Z,97543.81
2022-11-21T06:51:45.290Z,97546.16
2022-11-21T06:54:28.410Z,97543.19
2022-11-21T06:56:55.529Z,97549.31
2022-11-21T06:59:22.049Z,97549.41
2022-11-21T07:01:48.619Z,97550.75
2022-11-21T07:04:15.154Z,97546.81
2022-11-21T07:06:41.571Z,97545.25
2022-11-21T07:09:32.150Z,97550.75
2022-11-21T07:11:54.905Z,97554.47
2022-11-21T07:14:21.352Z,97552.75
2022-11-21T07:16:47.795Z,97555.91
2022-11-21T07:19:14.312Z,97561.88
2022-11-21T07:21:40.804Z,97559.88
2022-11-21T07:24:07.338Z,97571.06
2022-11-21T07:26:33.795Z,97578.19
2022-11-21T07:29:00.321Z,97583.56
2022-11-21T07:31:26.962Z,97576.78
2022-11-21T07:33:53.433Z,97572.69
2022-11-21T07:36:19.911Z,97569.84
2022-11-21T07:38:46.720Z,97565.69
2022-11-21T07:41:13.202Z,97566.13
2022-11-21T07:43:39.703Z,97573.38
2022-11-21T07:46:06.447Z,97568.69
2022-11-21T07:48:32.916Z,97563.06
2022-11-21T07:50:59.378Z,97565.31
2022-11-21T07:53:25.816Z,97560.38
2022-11-21T07:55:52.316Z,97568.22
2022-11-21T07:58:18.780Z,97563.41
2022-11-21T08:00:45.548Z,97558.38
2022-11-21T08:03:12.948Z,97562.28
2022-11-21T08:05:41.965Z,97557.97
2022-11-21T08:08:10.171Z,97561.03
2022-11-21T08:10:42.557Z,97556.09
2022-11-21T08:13:09.280Z,97547.78
2022-11-21T08:15:36.403Z,97552.09
2022-11-21T08:18:09.672Z,97548.91
2022-11-21T08:20:36.252Z,97552.72
2022-11-21T08:23:02.950Z,97555.91
2022-11-21T08:25:29.411Z,97547.31
2022-11-21T08:27:57.550Z,97547.31
2022-11-21T08:30:24.427Z,97543.56
2022-11-21T08:32:51.065Z,97547.16
2022-11-21T08:35:17.713Z,97538.06
2022-11-21T08:37:44.206Z,97535.56
2022-11-21T08:40:11.105Z,97531.25
2022-11-21T08:42:37.989Z,97531.66
2022-11-21T08:45:05.759Z,97527.31
2022-11-21T08:47:35.020Z,97528.25
2022-11-21T08:50:07.438Z,97537.03
2022-11-21T08:52:35.180Z,97531.81
2022-11-21T08:55:01.646Z,97529.75
2022-11-21T08:57:28.118Z,97521.34
2022-11-21T08:59:54.559Z,97516.97
2022-11-21T09:02:21.019Z,97508.88
2022-11-21T09:04:47.509Z,97512.69
2022-11-21T09:07:14.012Z,97513.81
2022-11-21T09:09:40.549Z,97508.22
2022-11-21T09:12:07.174Z,97497.19
2022-11-21T09:14:52.205Z,97496.59
2022-11-21T09:17:37.485Z,97491.19
2022-11-21T09:20:04.405Z,97484.63
2022-11-21T09:22:30.887Z,97482.81
2022-11-21T09:24:57.333Z,97480.00
2022-11-21T09:27:23.802Z,97477.28
2022-11-21T09:29:54.041Z,97479.47
2022-11-21T09:32:21.273Z,97475.41
2022-11-21T09:34:47.772Z,97484.69
2022-11-21T09:37:14.336Z,97482.59
2022-11-21T09:39:40.805Z,97482.47
2022-11-21T09:42:22.436Z,97475.81
2022-11-21T09:45:02.305Z,97461.59
2022-11-21T09:47:34.968Z,97464.78
2022-11-21T09:50:21.197Z,97453.97
2022-11-21T09:52:54.131Z,97449.84
2022-11-21T09:55:39.777Z,97452.44
2022-11-21T09:58:37.226Z,97449.16
2022-11-21T10:01:04.239Z,97447.78
2022-11-21T10:03:35.859Z,97451.84
2022-11-21T10:06:27.103Z,97442.78
2022-11-21T10:09:02.824Z,97441.13
2022-11-21T10:12:06.931Z,97445.38
2022-11-21T10:14:45.386Z,97431.81
2022-11-21T10:17:38.600Z,97428.88
2022-11-21T10:20:24.617Z,97423.22
2022-11-21T10:23:26.339Z,97422.84
2022-11-21T10:26:14.111Z,97416.16
2022-11-21T10:29:25.787Z,97408.53
2022-11-21T10:31:58.611Z,97397.72
2022-11-21T10:34:30.251Z,97385.69
2022-11-21T10:37:15.691Z,97385.97
2022-11-21T10:39:46.304Z,97390.75
2022-11-21T10:42:26.800Z,97373.84
2022-11-21T10:45:11.857Z,97375.41
2022-11-21T10:47:38.379Z,97359.56
2022-11-21T10:50:10.674Z,97348.13
2022-11-21T10:53:34.895Z,97346.63
2022-11-21T10:56:05.952Z,97345.81
2022-11-21T10:58:46.078Z,97334.72
2022-11-21T11:01:34.267Z,97334.00
2022-11-21T11:04:26.702Z,97324.56
2022-11-21T11:06:55.037Z,97312.63
2022-11-21T11:09:24.327Z,97307.34
2022-11-21T11:11:50.929Z,97300.41
2022-11-21T11:14:30.250Z,97300.69
2022-11-21T11:16:57.016Z,97295.69
2022-11-21T11:19:35.403Z,97292.50
2022-11-21T11:22:05.072Z,97288.84
2022-11-21T11:24:31.590Z,97288.84
2022-11-21T11:27:01.245Z,97280.81
2022-11-21T11:29:30.734Z,97278.59
2022-11-21T11:32:21.242Z,97280.91
2022-11-21T11:35:00.329Z,97276.34
2022-11-21T11:37:40.752Z,97270.81
2022-11-21T11:40:37.706Z,97265.81
2022-11-21T11:43:35.897Z,97270.38
2022-11-21T11:46:45.015Z,97263.63
2022-11-21T11:49:21.463Z,97258.72
2022-11-21T11:51:53.405Z,97257.69
2022-11-21T11:54:26.557Z,97247.94
2022-11-21T11:56:53.913Z,97243.19
2022-11-21T11:59:32.828Z,97240.28
2022-11-21T12:02:10.348Z,97246.75
2022-11-21T12:04:47.533Z,97251.06
2022-11-21T12:10:20.717Z,97243.53
2022-11-21T12:12:55.928Z,97230.19
2022-11-21T12:15:49.020Z,97233.75
2022-11-21T12:18:15.418Z,97228.94
2022-11-21T12:20:50.882Z,97223.31
2022-11-21T12:23:18.707Z,97212.16
2022-11-21T12:26:03.373Z,97203.34
2022-11-21T12:28:51.154Z,97191.72
2022-11-21T12:31:23.480Z,97192.44
2022-11-21T12:34:04.066Z,97186.22
2022-11-21T12:36:40.260Z,97176.09
2022-11-21T12:39:21.599Z,97168.84
2022-11-21T12:42:50.906Z,97165.31
2022-11-21T12:45:52.386Z,97160.31
2022-11-21T12:48:47.147Z,97148.59
2022-11-21T12:51:59.094Z,97141.16
2022-11-21T12:54:52.833Z,97136.69
2022-11-21T12:57:21.331Z,97132.09
2022-11-21T13:00:07.704Z,97137.28
2022-11-21T13:02:58.818Z,97125.56
2022-11-21T13:05:28.441Z,97131.31
2022-11-21T13:08:01.028Z,97117.63
2022-11-21T13:10:28.145Z,97120.22
2022-11-21T13:13:14.778Z,97111.03
2022-11-21T13:15:54.007Z,97111.22
2022-11-21T13:18:26.268Z,97112.91
2022-11-21T13:20:52.898Z,97120.75
2022-11-21T13:23:40.630Z,97106.31
2022-11-21T13:26:25.509Z,97092.84
2022-11-21T13:29:08.357Z,97090.63
2022-11-21T13:31:36.119Z,97082.75
2022-11-21T13:34:05.226Z,97082.22
2022-11-21T13:36:32.172Z,97081.53
2022-11-21T13:38:58.711Z,97071.41
2022-11-21T13:41:53.037Z,97071.06
2022-11-21T13:44:31.516Z,97054.13
2022-11-21T13:47:10.355Z,97056.06
2022-11-21T13:49:55.918Z,97040.50
2022-11-21T13:52:32.072Z,97040.63
2022-11-21T13:55:16.916Z,97034.25
2022-11-21T13:57:56.698Z,97030.88
2022-11-21T14:00:42.885Z,97027.75
2022-11-21T14:03:21.608Z,97023.22
2022-11-21T14:06:16.500Z,97011.69
2022-11-21T14:08:43.856Z,97019.78
2022-11-21T14:11:36.509Z,97011.13
2022-11-21T14:14:03.076Z,97009.66
2022-11-21T14:16:36.802Z,97007.06
2022-11-21T14:19:04.872Z,97007.63
2022-11-21T14:21:34.022Z,96997.28
2022-11-21T14:24:06.851Z,96988.28
2022-11-21T14:26:43.289Z,96993.75
2022-11-21T14:29:26.605Z,96978.41
2022-11-21T14:31:54.182Z,96973.97
2022-11-21T14:34:28.724Z,96955.22
2022-11-21T14:36:59.174Z,96947.53
2022-11-21T14:39:38.754Z,96937.28
2022-11-21T14:42:13.612Z,96935.41
2022-11-21T14:44:40.118Z,96934.97
2022-11-21T14:47:25.912Z,96928.31
2022-11-21T14:49:55.906Z,96921.72
2022-11-21T14:52:31.472Z,96912.88
2022-11-21T14:55:28.668Z,96904.47
2022-11-21T14:57:47.111Z,96888.16
2022-11-21T15:00:43.502Z,96878.69
2022-11-21T15:03:03.389Z,96871.44
2022-11-21T15:06:02.561Z,96867.63
2022-11-21T15:11:11.737Z,96851.59
2022-11-21T15:13:58.451Z,96847.59
2022-11-21T15:16:25.476Z,96840.72
2022-11-21T15:18:52.063Z,96836.19
2022-11-21T15:21:18.588Z,96834.59
2022-11-21T15:23:45.492Z,96831.19
2022-11-21T15:26:32.556Z,96820.84
2022-11-21T15:29:00.457Z,96823.06
2022-11-21T15:31:27.669Z,96822.31
2022-11-21T15:34:27.274Z,96813.53
2022-11-21T15:36:43.772Z,96807.75
2022-11-21T15:39:19.855Z,96795.84
2022-11-21T15:41:46.359Z,96781.38
2022-11-21T15:44:12.779Z,96776.34
2022-11-21T15:46:43.065Z,96780.38
2022-11-21T15:49:32.340Z,96766.88
2022-11-21T15:52:09.779Z,96751.41
2022-11-21T15:54:38.402Z,96756.84
2022-11-21T15:57:07.127Z,96754.59
2022-11-21T15:59:34.144Z,96747.38
2022-11-21T16:02:01.949Z,96741.16
2022-11-21T16:04:29.349Z,96739.72
2022-11-21T16:06:56.910Z,96734.50
2022-11-21T16:09:26.344Z,96725.66
2022-11-21T16:11:53.591Z,96708.00
2022-11-21T16:14:20.969Z,96713.78
2022-11-21T16:16:48.573Z,96709.97
2022-11-21T16:19:15.911Z,96700.94
2022-11-21T16:21:42.562Z,96684.25
2022-11-21T16:24:09.160Z,96660.72
2022-11-21T16:26:35.695Z,96669.75
2022-11-21T16:29:05.247Z,96666.75
2022-11-21T16:31:32.318Z,96663.13
2022-11-21T16:33:59.305Z,96656.25
2022-11-21T16:36:28.217Z,96648.81
2022-11-21T16:39:00.490Z,96649.59
2022-11-21T16:41:30.104Z,96645.00
2022-11-21T16:43:56.646Z,96645.03
2022-11-21T16:46:24.591Z,96648.44
2022-11-21T16:49:02.350Z,96642.78
2022-11-21T16:51:29.616Z,96658.25
2022-11-21T16:53:57.191Z,96657.66
2022-11-21T16:56:24.406Z,96662.69
2022-11-21T16:58:50.979Z,96651.22
2022-11-21T17:01:19.791Z,96630.28
2022-11-21T17:03:47.747Z,96641.53
2022-11-21T17:06:17.912Z,96646.75
2022-11-21T17:08:44.745Z,96653.81
2022-11-21T17:11:16.890Z,96657.84
2022-11-21T17:13:44.501Z,96674.38
2022-11-21T17:16:12.011Z,96671.94
2022-11-21T17:18:39.249Z,96666.72
2022-11-21T17:21:08.893Z,96670.56
2022-11-21T17:23:38.045Z,96664.13
2022-11-21T17:26:06.618Z,96649.44
2022-11-21T17:28:34.631Z,96645.81
2022-11-21T17:31:11.966Z,96633.91
2022-11-21T17:33:38.901Z,96647.38
2022-11-21T17:36:07.488Z,96637.72
2022-11-21T17:38:33.980Z,96641.75
2022-11-21T17:41:07.609Z,96637.94
2022-11-21T17:43:34.796Z,96636.53
2022-11-21T17:46:09.091Z,96644.72
2022-11-21T17:48:36.843Z,96638.47
2022-11-21T17:51:07.074Z,96630.44
2022-11-21T17:53:36.625Z,96620.22
2022-11-21T17:56:05.192Z,96609.91
2022-11-21T17:58:32.359Z,96608.94
2022-11-21T18:01:00.939Z,96610.13
2022-11-21T18:03:28.012Z,96594.31
2022-11-21T18:06:02.387Z,96597.38
2022-11-21T18:08:34.552Z,96596.19
2022-11-21T18:11:01.319Z,96602.16
2022-11-21T18:13:29.288Z,96602.78
2022-11-21T18:15:59.290Z,96601.75
2022-11-21T18:18:25.757Z,96600.41
2022-11-21T18:20:52.226Z,96593.75
2022-11-21T18:23:18.752Z,96606.84
2022-11-21T18:25:45.309Z,96609.06
2022-11-21T18:28:11.961Z,96620.47
2022-11-21T18:30:38.426Z,96612.06
2022-11-21T18:33:05.069Z,96615.69
2022-11-21T18:35:31.543Z,96609.28
2022-11-21T18:37:58.040Z,96613.16
2022-11-21T18:40:24.592Z,96590.56
2022-11-21T18:42:51.836Z,96604.28
2022-11-21T18:45:18.929Z,96591.44
2022-11-21T18:47:47.908Z,96586.19
2022-11-21T18:50:15.745Z,96572.25
2022-11-21T18:52:46.383Z,96573.28
2022-11-21T18:55:13.368Z,96568.38
2022-11-21T18:57:39.855Z,96572.56
2022-11-21T19:00:07.327Z,96560.94
2022-11-21T19:02:34.051Z,96550.91
2022-11-21T19:05:00.540Z,96545.66
2022-11-21T19:07:27.133Z,96547.28
2022-11-21T19:09:53.826Z,96553.88
2022-11-21T19:12:20.447Z,96538.03
2022-11-21T19:14:47.093Z,96539.75
2022-11-21T19:17:13.547Z,96546.81
2022-11-21T19:19:40.138Z,96550.44
2022-11-21T19:22:06.641Z,96547.75
2022-11-21T19:24:33.375Z,96545.34
2022-11-21T19:26:59.906Z,96531.47
2022-11-21T19:29:26.804Z,96541.97
2022-11-21T19:31:53.538Z,96544.94
2022-11-21T19:34:20.113Z,96536.75
2022-11-21T19:36:46.691Z,96537.50
2022-11-21T19:39:13.574Z,96525.31
2022-11-21T19:41:40.420Z,96526.28
2022-11-21T19:44:07.097Z,96524.22
2022-11-21T19:46:36.282Z,96522.91
2022-11-21T19:49:04.886Z,96514.22
2022-11-21T19:51:33.911Z,96504.34
2022-11-21T19:54:08.722Z,96496.25
2022-11-21T19:56:36.048Z,96499.81
2022-11-21T19:59:03.170Z,96487.78
2022-11-21T20:01:31.421Z,96480.00
2022-11-21T20:04:00.302Z,96479.78
2022-11-21T20:06:28.916Z,96476.66
2022-11-21T20:08:58.179Z,96475.56
2022-11-21T20:11:26.524Z,96468.38
2022-11-21T20:13:53.317Z,96468.19
2022-11-21T20:16:29.841Z,96452.47
2022-11-21T20:18:59.694Z,96450.84
2022-11-21T20:21:26.661Z,96458.69
2022-11-21T20:23:53.483Z,96462.50
2022-11-21T20:26:22.256Z,96459.91
2022-11-21T20:28:49.579Z,96460.16
2022-11-21T20:31:21.983Z,96466.69
2022-11-21T20:33:51.009Z,96462.16
2022-11-21T20:36:20.630Z,96471.03
2022-11-21T20:38:54.610Z,96473.97
2022-11-21T20:41:22.871Z,96465.25
2022-11-21T20:44:34.643Z,96473.16
2022-11-21T20:46:40.010Z,96474.13
2022-11-21T20:49:06.651Z,96462.16
2022-11-21T20:54:19.884Z,96457.78
2022-11-21T20:56:46.455Z,96459.16
2022-11-21T20:59:13.263Z,96453.59
2022-11-21T21:01:40.101Z,96457.63
2022-11-21T21:04:06.834Z,96454.50
2022-11-21T21:06:33.323Z,96446.88
2022-11-21T21:08:59.803Z,96446.34
2022-11-21T21:11:50.265Z,96433.59
2022-11-21T21:14:12.706Z,96438.06
2022-11-21T21:16:39.237Z,96442.19
2022-11-21T21:19:05.751Z,96442.91
2022-11-21T21:21:32.282Z,96438.50
2022-11-21T21:23:58.715Z,96436.06
2022-11-21T21:26:28.950Z,96431.25
2022-11-21T21:28:57.332Z,96430.56
2022-11-21T21:31:24.346Z,96423.25
2022-11-21T21:33:50.821Z,96422.59
2022-11-21T21:36:21.990Z,96411.69
2022-11-21T21:38:53.739Z,96418.94
2022-11-21T21:41:21.137Z,96412.75
2022-11-21T21:43:52.445Z,96414.50
2022-11-21T21:46:21.806Z,96399.38
2022-11-21T21:48:48.693Z,96401.41
2022-11-21T21:51:16.292Z,96394.78
2022-11-21T21:53:43.450Z,96403.44
2022-11-21T21:56:10.596Z,96400.44
2022-11-21T21:58:39.879Z,96402.19
2022-11-21T22:01:18.132Z,96397.56
2022-11-21T22:03:45.586Z,96395.88
2022-11-21T22:06:17.229Z,96394.19
2022-11-21T22:08:45.457Z,96390.44
2022-11-21T22:11:14.794Z,96387.66
2022-11-21T22:13:43.846Z,96384.03
2022-11-21T22:16:12.184Z,96385.78
2022-11-21T22:18:39.612Z,96390.50
2022-11-21T22:21:29.208Z,96388.47
2022-11-21T22:24:23.471Z,96385.50
2022-11-21T22:26:43.047Z,96381.94
2022-11-21T22:29:09.570Z,96385.56
2022-11-21T22:31:36.193Z,96381.84
2022-11-21T22:34:02.907Z,96380.97
2022-11-21T22:36:29.364Z,96372.97
2022-11-21T22:38:56.529Z,96377.13
2022-11-21T22:41:25.669Z,96372.81
2022-11-21T22:43:57.773Z,96370.50
2022-11-21T22:46:26.997Z,96372.47
2022-11-21T22:48:53.896Z,96365.28
2022-11-21T22:51:23.508Z,96367.31
2022-11-21T22:53:50.869Z,96369.81
2022-11-21T22:56:20.355Z,96363.88
2022-11-21T22:58:47.694Z,96360.84
2022-11-21T23:01:16.860Z,96360.28
2022-11-21T23:03:44.308Z,96351.31
2022-11-21T23:06:13.839Z,96358.88
2022-11-21T23:08:40.900Z,96363.47
2022-11-21T23:11:16.357Z,96359.97
2022-11-21T23:13:44.679Z,96357.34
2022-11-21T23:16:12.044Z,96356.13
2022-11-21T23:18:39.601Z,96365.13
2022-11-21T23:21:06.548Z,96364.47
2022-11-21T23:23:33.513Z,96364.63
2022-11-21T23:25:59.973Z,96373.41
2022-11-21T23:28:26.786Z,96367.25
2022-11-21T23:30:53.735Z,96362.88
2022-11-21T23:33:20.422Z,96375.16
2022-11-21T23:35:47.260Z,96362.31
2022-11-21T23:38:15.582Z,96361.16
2022-11-21T23:40:44.644Z,96361.34
2022-11-21T23:43:11.216Z,96359.09
2022-11-21T23:45:37.876Z,96366.72
2022-11-21T23:48:04.560Z,96367.38
2022-11-21T23:50:30.998Z,96367.75
2022-11-21T23:52:57.452Z,96360.03
2022-11-21T23:55:23.902Z,96360.41
2022-11-21T23:57:51.158Z,96357.50
